Time;durP1;ratioP1;P1;durP2;ratioP2;P2;SDS_P1;SDS_P2;PMS_P1;PMS_P2;Temp;Humidity;BMP_temperature;BMP_pressure;BME280_temperature;BME280_humidity;BME280_pressure;Samples;Min_cycle;Max_cycle;Signal;HPM_P1;HPM_P2
2023/01/27 00:00:07;;;;;;;330.17;82.33;;;;;;;1.87;100.00;98863.72;345934;28;1120;-73
2023/01/27 00:00:18;;;;;;;326.17;78.80;;;;;;;1.89;100.00;98861.09;344608;28;2919;-74
2023/01/27 00:00:28;;;;;;;326.60;76.83;;;;;;;1.89;100.00;98866.25;346682;28;3786;-75
2023/01/27 00:00:39;;;;;;;328.52;77.88;;;;;;;1.88;100.00;98869.72;345271;28;3381;-74
2023/01/27 00:00:52;;;;;;;331.17;79.80;;;;;;;1.88;100.00;98867.13;343487;28;3300;-73
2023/01/27 00:01:03;;;;;;;326.40;77.57;;;;;;;1.88;100.00;98869.72;345886;28;1431;-73
2023/01/27 00:01:14;;;;;;;321.67;76.57;;;;;;;1.89;100.00;98866.25;344670;28;931;-73
2023/01/27 00:01:25;;;;;;;324.15;76.78;;;;;;;1.88;100.00;98865.41;344690;28;936;-75
2023/01/27 00:01:35;;;;;;;325.95;78.00;;;;;;;1.88;100.00;98868.00;346369;28;893;-73
2023/01/27 00:01:46;;;;;;;327.87;78.80;;;;;;;1.90;100.00;98871.41;347283;28;1556;-74
2023/01/27 00:01:57;;;;;;;327.58;79.03;;;;;;;1.89;100.00;98861.94;344519;28;876;-73
2023/01/27 00:02:07;;;;;;;326.67;77.65;;;;;;;1.91;100.00;98867.09;343262;28;1277;-74
2023/01/27 00:02:17;;;;;;;323.73;75.63;;;;;;;1.91;100.00;98869.66;344071;28;1178;-73
2023/01/27 00:02:28;;;;;;;321.65;74.70;;;;;;;1.88;100.00;98865.41;344431;28;1179;-72
2023/01/27 00:02:39;;;;;;;322.20;75.80;;;;;;;1.88;100.00;98868.00;346680;28;1243;-73
2023/01/27 00:02:49;;;;;;;325.00;76.07;;;;;;;1.88;100.00;98864.56;347885;28;1276;-73
2023/01/27 00:03:00;;;;;;;326.38;77.22;;;;;;;1.89;100.00;98861.09;344607;28;919;-73
2023/01/27 00:03:11;;;;;;;325.30;77.47;;;;;;;1.89;100.00;98866.25;343174;28;942;-72
2023/01/27 00:03:22;;;;;;;322.13;78.30;;;;;;;1.89;100.00;98861.94;345804;28;1349;-74
2023/01/27 00:03:33;;;;;;;324.90;77.40;;;;;;;1.88;100.00;98860.25;346337;28;872;-74
2023/01/27 00:03:43;;;;;;;330.13;76.60;;;;;;;1.89;100.00;98866.25;343265;28;1507;-74
2023/01/27 00:03:54;;;;;;;331.02;75.55;;;;;;;1.88;100.00;98865.41;345783;28;894;-74
2023/01/27 00:04:04;;;;;;;328.07;75.80;;;;;;;1.87;100.00;98873.19;346418;28;1373;-73
2023/01/27 00:04:14;;;;;;;323.52;76.07;;;;;;;1.87;100.00;98868.00;343415;28;1535;-73
2023/01/27 00:04:25;;;;;;;323.83;77.60;;;;;;;1.87;100.00;98868.00;340578;29;945;-73
2023/01/27 00:04:35;;;;;;;324.52;77.30;;;;;;;1.85;100.00;98870.63;340255;28;1410;-73
2023/01/27 00:04:45;;;;;;;324.97;76.40;;;;;;;1.86;100.00;98868.91;340810;28;1548;-73
2023/01/27 00:04:56;;;;;;;325.40;75.78;;;;;;;1.86;100.00;98871.47;341833;28;1162;-74
2023/01/27 00:05:07;;;;;;;328.17;77.40;;;;;;;1.85;100.00;98869.78;339885;28;1910;-74
2023/01/27 00:05:18;;;;;;;329.17;78.68;;;;;;;1.85;100.00;98873.19;340375;29;1493;-73
2023/01/27 00:05:28;;;;;;;327.00;78.18;;;;;;;1.86;100.00;98876.63;339261;29;896;-73
2023/01/27 00:05:39;;;;;;;324.70;76.33;;;;;;;1.85;100.00;98872.34;339156;29;909;-74
2023/01/27 00:05:49;;;;;;;322.13;75.43;;;;;;;1.85;100.00;98869.78;338615;29;1224;-73
2023/01/27 00:05:59;;;;;;;321.70;75.77;;;;;;;1.85;100.00;98875.78;335275;29;3440;-73
2023/01/27 00:06:11;;;;;;;324.17;77.47;;;;;;;1.86;100.00;98872.31;333444;29;3645;-73
2023/01/27 00:06:22;;;;;;;327.95;79.40;;;;;;;1.86;100.00;98871.47;339208;28;2880;-73
2023/01/27 00:06:32;;;;;;;333.02;83.03;;;;;;;1.87;100.00;98878.34;336158;29;2050;-75
2023/01/27 00:06:43;;;;;;;330.20;82.33;;;;;;;1.86;100.00;98871.47;331829;29;3112;-74
2023/01/27 00:06:53;;;;;;;329.37;81.97;;;;;;;1.87;100.00;98868.00;334996;29;2019;-74
2023/01/27 00:07:03;;;;;;;325.60;78.70;;;;;;;1.86;100.00;98871.47;334468;29;3679;-73
2023/01/27 00:07:14;;;;;;;326.83;79.27;;;;;;;1.84;100.00;98874.06;334290;29;3104;-73
2023/01/27 00:07:24;;;;;;;324.58;79.32;;;;;;;1.84;100.00;98883.53;334263;29;1274;-74
2023/01/27 00:07:34;;;;;;;327.10;80.53;;;;;;;1.83;100.00;98874.97;333713;29;1883;-74
2023/01/27 00:07:45;;;;;;;326.95;78.75;;;;;;;1.81;100.00;98881.03;332846;29;3540;-74
2023/01/27 00:07:57;;;;;;;326.07;78.03;;;;;;;1.82;100.00;98875.84;332965;29;1233;-74
2023/01/27 00:08:07;;;;;;;324.05;77.63;;;;;;;1.82;100.00;98880.13;333421;29;3849;-74
2023/01/27 00:08:18;;;;;;;323.90;79.25;;;;;;;1.81;100.00;98879.28;332385;29;2975;-74
2023/01/27 00:08:28;;;;;;;327.50;82.00;;;;;;;1.79;100.00;98881.03;330555;29;1197;-74
2023/01/27 00:08:38;;;;;;;326.10;82.22;;;;;;;1.78;100.00;98884.50;333951;29;2418;-74
2023/01/27 00:08:49;;;;;;;327.20;81.70;;;;;;;1.77;100.00;98884.53;329692;29;3177;-74
2023/01/27 00:08:59;;;;;;;325.50;78.65;;;;;;;1.77;100.00;98887.97;328970;29;2873;-74
2023/01/27 00:09:10;;;;;;;326.03;78.10;;;;;;;1.79;100.00;98885.34;324262;30;4248;-72
2023/01/27 00:09:21;;;;;;;328.38;78.55;;;;;;;1.80;100.00;98884.47;325441;30;3602;-72
2023/01/27 00:09:31;;;;;;;328.85;77.93;;;;;;;1.79;100.00;98882.78;323967;29;4212;-72
2023/01/27 00:09:42;;;;;;;332.13;78.93;;;;;;;1.81;100.00;98886.19;326226;30;3632;-73
2023/01/27 00:09:52;;;;;;;329.27;79.10;;;;;;;1.82;100.00;98893.03;323901;30;4295;-73
2023/01/27 00:10:03;;;;;;;331.03;81.37;;;;;;;1.82;100.00;98885.31;319644;30;3607;-73
2023/01/27 00:10:14;;;;;;;329.13;82.05;;;;;;;1.81;100.00;98888.75;316642;30;4189;-73
2023/01/27 00:10:25;;;;;;;329.25;80.93;;;;;;;1.80;100.00;98892.22;313218;31;3486;-75
2023/01/27 00:10:36;;;;;;;327.88;79.97;;;;;;;1.83;100.00;98894.75;316117;30;3211;-74
2023/01/27 00:13:25;;;;;;;328.77;80.30;;;;;;;1.82;100.00;98885.31;313168;31;3780;-73
2023/01/27 00:13:26;;;;;;;330.98;80.15;;;;;;;1.86;100.00;98887.81;295617;33;4371;-73
2023/01/27 00:13:37;;;;;;;327.83;80.10;;;;;;;1.86;100.00;98892.13;295337;33;4363;-73
2023/01/27 00:13:47;;;;;;;324.13;79.53;;;;;;;1.86;100.00;98892.13;293666;33;3734;-72
2023/01/27 00:13:57;;;;;;;326.30;80.07;;;;;;;1.87;100.00;98893.81;290795;33;4517;-72
2023/01/27 00:14:08;;;;;;;326.87;79.20;;;;;;;1.88;100.00;98896.38;290039;33;3744;-72
2023/01/27 00:14:18;;;;;;;328.70;79.88;;;;;;;1.88;100.00;98895.50;289359;33;7614;-74
2023/01/27 00:14:29;;;;;;;326.50;79.43;;;;;;;1.89;100.00;98897.22;290815;34;3549;-73
2023/01/27 00:14:39;;;;;;;325.88;80.35;;;;;;;1.90;100.00;98898.91;288307;34;4559;-74
2023/01/27 00:14:49;;;;;;;325.83;79.33;;;;;;;1.90;100.00;98893.75;290101;33;5661;-74
2023/01/27 00:15:00;;;;;;;324.88;78.20;;;;;;;1.89;100.00;98889.47;291682;33;6800;-73
2023/01/27 00:15:12;;;;;;;326.17;77.37;;;;;;;1.88;100.00;98893.78;290922;34;1134;-73
2023/01/27 00:15:22;;;;;;;325.70;78.18;;;;;;;1.88;100.00;98903.25;285621;34;6640;-73
2023/01/27 00:15:33;;;;;;;324.77;79.13;;;;;;;1.88;100.00;98896.38;282757;34;5651;-73
2023/01/27 00:15:43;;;;;;;322.63;77.70;;;;;;;1.88;100.00;98895.50;283976;34;1049;-73
2023/01/27 00:15:54;;;;;;;323.10;77.72;;;;;;;1.89;100.00;98897.22;285594;34;5891;-74
2023/01/27 00:16:04;;;;;;;325.03;78.57;;;;;;;1.91;100.00;98898.91;283028;34;5323;-71
2023/01/27 00:16:15;;;;;;;327.60;80.70;;;;;;;1.91;100.00;98898.91;280778;34;4115;-74
2023/01/27 00:16:26;;;;;;;327.25;80.25;;;;;;;1.93;100.00;98896.28;281678;35;1218;-73
2023/01/27 00:16:36;;;;;;;325.13;78.73;;;;;;;1.91;100.00;98896.31;280821;35;5510;-73
2023/01/27 00:16:46;;;;;;;323.83;77.07;;;;;;;1.91;100.00;98900.63;278630;35;7281;-73
2023/01/27 00:16:57;;;;;;;324.30;76.80;;;;;;;1.91;100.00;98891.16;277984;35;1539;-73
2023/01/27 00:17:07;;;;;;;327.48;80.22;;;;;;;1.90;100.00;98893.75;275590;35;8589;-74
2023/01/27 00:17:17;;;;;;;326.73;79.80;;;;;;;1.89;100.00;98898.06;275322;35;10352;-74
2023/01/27 00:17:28;;;;;;;326.73;80.65;;;;;;;1.89;100.00;98892.06;277980;35;1229;-73
2023/01/27 00:17:38;;;;;;;325.60;78.83;;;;;;;1.87;100.00;98899.81;274036;35;9202;-73
2023/01/27 00:17:49;;;;;;;324.88;78.72;;;;;;;1.86;100.00;98897.28;271640;35;8236;-73
2023/01/27 00:20:03;;;;;;;321.63;76.11;;;;;;;1.89;100.00;98897.22;2500769;27;20483;-74
2023/01/27 00:24:34;;;;;;;324.67;76.88;;;;;;;1.89;100.00;98881.75;351680;28;3573;-74
2023/01/27 00:24:34;;;;;;;328.23;80.03;;;;;;;1.95;100.00;98872.16;335551;29;3445;-73
2023/01/27 00:24:45;;;;;;;328.10;80.13;;;;;;;1.95;100.00;98871.31;337940;29;905;-73
2023/01/27 00:24:52;;;;;;;327.40;79.60;;;;;;;1.96;100.00;98870.44;342215;28;3671;-74
2023/01/27 00:24:55;;;;;;;328.77;80.47;;;;;;;1.95;100.00;98867.00;336249;28;4378;-72
2023/01/27 00:25:06;;;;;;;329.00;80.00;;;;;;;1.93;100.00;98867.91;341082;28;960;-72
2023/01/27 00:25:16;;;;;;;328.77;80.10;;;;;;;1.94;100.00;98873.03;339548;29;885;-72
2023/01/27 00:25:27;;;;;;;329.13;79.38;;;;;;;1.93;100.00;98868.75;342008;28;1207;-73
2023/01/27 00:25:37;;;;;;;328.70;78.37;;;;;;;1.95;100.00;98871.31;342357;28;868;-72
2023/01/27 00:25:57;;;;;;;329.70;79.80;;;;;;;1.97;100.00;98869.56;341803;28;1189;-73
2023/01/27 00:26:13;;;;;;;326.33;82.43;;;;;;;1.95;100.00;98871.31;342019;28;1049;-73
2023/01/27 00:26:23;;;;;;;324.48;78.10;;;;;;;1.95;100.00;98868.72;341339;28;1583;-74
2023/01/27 00:26:33;;;;;;;325.27;77.55;;;;;;;1.94;100.00;98870.47;340570;29;865;-74
2023/01/27 00:26:44;;;;;;;326.40;79.90;;;;;;;1.94;100.00;98864.44;338836;29;1240;-73
2023/01/27 00:26:54;;;;;;;326.08;81.43;;;;;;;1.94;100.00;98869.63;340567;29;915;-73
2023/01/27 00:27:07;;;;;;;326.20;82.40;;;;;;;1.95;100.00;98863.56;337807;29;1345;-73
2023/01/27 00:27:18;;;;;;;327.58;79.55;;;;;;;1.94;100.00;98860.13;336760;29;861;-73
2023/01/27 00:27:28;;;;;;;330.33;79.45;;;;;;;1.94;100.00;98860.13;336140;29;861;-73
2023/01/27 00:27:38;;;;;;;331.50;79.53;;;;;;;1.93;100.00;98860.16;336794;29;945;-73
2023/01/27 00:27:49;;;;;;;332.25;79.70;;;;;;;1.92;100.00;98855.88;339223;29;861;-73
2023/01/27 00:27:59;;;;;;;329.07;79.83;;;;;;;1.93;100.00;98862.75;339044;29;1439;-73
2023/01/27 00:28:22;;;;;;;331.23;80.50;;;;;;;1.92;100.00;98855.88;337400;29;1428;-72
2023/01/27 00:28:33;;;;;;;327.08;80.28;;;;;;;1.92;100.00;98861.03;331419;29;932;-72
2023/01/27 00:28:44;;;;;;;327.58;80.13;;;;;;;1.92;100.00;98853.31;335449;29;1678;-73
2023/01/27 00:28:54;;;;;;;329.27;80.25;;;;;;;1.92;100.00;98855.88;332635;29;1919;-73
2023/01/27 00:29:05;;;;;;;328.50;78.20;;;;;;;1.93;100.00;98852.44;334088;29;897;-74
2023/01/27 00:29:15;;;;;;;327.20;79.63;;;;;;;1.94;100.00;98851.56;335171;29;865;-73
2023/01/27 00:29:25;;;;;;;325.08;78.95;;;;;;;1.94;100.00;98854.13;333181;29;1396;-74
2023/01/27 00:29:36;;;;;;;326.60;79.77;;;;;;;1.92;100.00;98854.16;335465;29;1202;-74
2023/01/27 00:29:46;;;;;;;327.52;78.82;;;;;;;1.93;100.00;98855.00;334374;29;1152;-74
2023/01/27 00:29:57;;;;;;;329.27;80.07;;;;;;;1.92;100.00;98853.31;330571;29;1472;-73
2023/01/27 00:30:08;;;;;;;328.33;79.35;;;;;;;1.94;100.00;98848.97;328959;29;1694;-74
2023/01/27 00:30:18;;;;;;;330.15;79.75;;;;;;;1.94;100.00;98854.13;328891;29;1435;-73
2023/01/27 00:30:28;;;;;;;327.47;79.70;;;;;;;1.95;100.00;98855.84;335376;29;1894;-74
2023/01/27 00:30:39;;;;;;;327.10;79.53;;;;;;;1.95;100.00;98851.53;335568;29;1954;-73
2023/01/27 00:30:49;;;;;;;323.63;77.77;;;;;;;1.94;100.00;98849.81;337980;29;874;-73
2023/01/27 00:31:00;;;;;;;324.23;78.63;;;;;;;1.96;100.00;98852.38;339511;29;2162;-73
2023/01/27 00:33:29;;;;;;;325.95;76.50;;;;;;;1.95;100.00;98850.66;325638;30;2734;-73
2023/01/27 00:33:39;;;;;;;326.77;79.60;;;;;;;1.95;100.00;98850.66;320739;30;1299;-73
2023/01/27 00:33:53;;;;;;;325.40;77.93;;;;;;;1.96;100.00;98850.66;320502;30;1314;-73
2023/01/27 00:34:07;;;;;;;326.63;79.28;;;;;;;1.98;100.00;98853.19;311982;31;3715;-73
2023/01/27 00:34:18;;;;;;;327.77;82.53;;;;;;;1.99;100.00;98842.00;311148;31;2435;-73
2023/01/27 00:34:28;;;;;;;331.20;84.97;;;;;;;1.98;100.00;98851.47;310554;31;2875;-73
2023/01/27 00:34:40;;;;;;;328.90;82.83;;;;;;;1.98;100.00;98850.63;309743;31;4123;-73
2023/01/27 00:34:50;;;;;;;327.40;80.43;;;;;;;1.96;100.00;98845.50;307556;32;1566;-73
2023/01/27 00:35:01;;;;;;;326.00;79.77;;;;;;;1.96;100.00;98847.22;306075;31;3405;-74
2023/01/27 00:35:11;;;;;;;326.48;80.97;;;;;;;1.97;100.00;98851.50;307882;31;3690;-73
2023/01/27 00:35:24;;;;;;;328.73;80.63;;;;;;;1.95;100.00;98845.50;309221;31;3466;-73
2023/01/27 00:35:35;;;;;;;333.60;81.88;;;;;;;1.95;100.00;98845.50;310497;31;2159;-73
2023/01/27 00:35:45;;;;;;;333.98;82.30;;;;;;;1.95;100.00;98843.78;307830;31;2879;-73
2023/01/27 00:36:00;;;;;;;329.40;81.13;;;;;;;1.96;100.00;98847.22;307100;31;3910;-74
2023/01/27 00:36:10;;;;;;;330.17;81.40;;;;;;;1.97;100.00;98846.34;305880;32;2948;-73
2023/01/27 00:36:20;;;;;;;330.98;81.95;;;;;;;1.96;100.00;98844.63;306201;32;3175;-73
2023/01/27 00:36:31;;;;;;;332.20;82.70;;;;;;;1.97;100.00;98848.91;307336;32;3733;-73
2023/01/27 00:36:41;;;;;;;330.60;82.75;;;;;;;1.97;100.00;98844.59;307910;31;3910;-73
2023/01/27 00:36:51;;;;;;;327.90;80.07;;;;;;;1.97;100.00;98844.59;304659;32;4649;-73
2023/01/27 00:37:02;;;;;;;329.07;80.50;;;;;;;1.97;100.00;98844.59;300422;32;3473;-73
2023/01/27 00:37:12;;;;;;;329.10;82.10;;;;;;;1.97;100.00;98848.91;299821;32;4631;-73
2023/01/27 00:37:23;;;;;;;329.37;83.63;;;;;;;1.95;100.00;98841.19;304564;32;4483;-73
2023/01/27 00:37:33;;;;;;;331.77;85.43;;;;;;;1.96;100.00;98844.63;302263;32;2236;-73
2023/01/27 00:37:44;;;;;;;332.07;83.90;;;;;;;1.96;100.00;98847.22;299604;32;4665;-73
2023/01/27 00:37:54;;;;;;;334.67;83.75;;;;;;;1.95;100.00;98848.09;298438;32;3449;-73
2023/01/27 00:38:05;;;;;;;333.20;81.75;;;;;;;1.96;100.00;98844.63;297420;32;4655;-73
2023/01/27 00:38:15;;;;;;;329.97;81.37;;;;;;;1.97;100.00;98848.91;299983;32;3455;-73
2023/01/27 00:38:28;;;;;;;330.52;81.85;;;;;;;1.96;100.00;98848.06;298991;32;4825;-73
2023/01/27 00:38:41;;;;;;;333.27;83.60;;;;;;;1.97;100.00;98848.91;296905;32;5267;-73
2023/01/27 00:38:52;;;;;;;335.27;83.65;;;;;;;1.96;100.00;98848.06;294833;33;5473;-73
2023/01/27 00:39:03;;;;;;;331.35;82.60;;;;;;;1.98;100.00;98850.63;293147;33;3988;-73
2023/01/27 00:39:13;;;;;;;331.05;81.03;;;;;;;1.98;100.00;98848.03;291420;33;5998;-73
2023/01/27 00:39:24;;;;;;;327.90;81.03;;;;;;;1.99;100.00;98847.16;290460;33;10280;-73
2023/01/27 00:39:34;;;;;;;329.60;80.47;;;;;;;2.01;100.00;98850.56;290819;33;3689;-73
2023/01/27 00:39:44;;;;;;;331.93;81.73;;;;;;;1.99;100.00;98848.00;288118;33;6054;-73
2023/01/27 00:39:55;;;;;;;332.93;82.47;;;;;;;2.00;100.00;98848.84;290140;33;6586;-73
2023/01/27 00:40:05;;;;;;;331.07;82.90;;;;;;;1.99;100.00;98847.16;287742;34;5263;-73
2023/01/27 00:40:16;;;;;;;327.85;81.60;;;;;;;1.98;100.00;98855.78;290088;33;5110;-73
2023/01/27 00:40:26;;;;;;;326.87;80.53;;;;;;;1.97;100.00;98848.91;286257;34;5151;-73
2023/01/27 00:40:37;;;;;;;328.67;80.30;;;;;;;1.96;100.00;98849.78;283229;34;6621;-73
2023/01/27 00:41:14;;;;;;;331.13;81.63;;;;;;;1.98;100.00;98851.47;285276;34;1197;-73
2023/01/27 00:41:21;;;;;;;332.67;83.13;;;;;;;2.01;100.00;98853.13;282191;34;2050;-73
2023/01/27 00:41:33;;;;;;;330.60;80.88;;;;;;;2.00;100.00;98859.19;277988;35;1257;-73
2023/01/27 00:41:43;;;;;;;330.24;81.86;;;;;;;2.00;100.00;98854.03;275701;35;8597;-73
2023/01/27 00:41:54;;;;;;;329.07;82.33;;;;;;;1.98;100.00;98850.63;276225;35;8845;-73
2023/01/27 00:42:04;;;;;;;329.80;83.57;;;;;;;1.99;100.00;98849.75;276231;35;811;-74
2023/01/27 00:42:15;;;;;;;329.00;82.07;;;;;;;1.97;100.00;98849.78;274973;35;9340;-72
2023/01/27 00:43:58;;;;;;;321.38;79.06;;;;;;;1.98;100.00;98855.78;2494827;27;20258;-73
2023/01/27 00:44:11;;;;;;;330.48;83.30;;;;;;;1.97;100.00;98851.50;352890;28;1882;-72
2023/01/27 00:44:22;;;;;;;329.35;81.93;;;;;;;1.97;100.00;98854.94;351578;28;2652;-73
2023/01/27 00:44:33;;;;;;;329.73;81.50;;;;;;;1.98;100.00;98855.78;351192;28;816;-73
2023/01/27 00:45:47;;;;;;;329.07;81.50;;;;;;;1.97;100.00;98854.06;347752;28;4649;-72
2023/01/27 00:45:50;;;;;;;328.42;78.78;;;;;;;1.94;100.00;98854.97;343845;28;4198;-72
2023/01/27 00:46:00;;;;;;;329.85;78.60;;;;;;;1.94;100.00;98854.97;344391;28;2746;-73
2023/01/27 00:46:11;;;;;;;331.67;80.38;;;;;;;1.93;100.00;98855.00;345818;28;2482;-73
2023/01/27 00:46:22;;;;;;;332.88;81.13;;;;;;;1.93;100.00;98849.84;345734;28;2803;-73
2023/01/27 00:46:33;;;;;;;329.25;79.40;;;;;;;1.92;100.00;98846.41;344736;28;1397;-73
2023/01/27 00:46:43;;;;;;;330.73;80.07;;;;;;;1.93;100.00;98857.59;343157;28;3686;-72
2023/01/27 00:46:53;;;;;;;331.20;81.33;;;;;;;1.94;100.00;98848.97;348138;28;2818;-72
2023/01/27 00:47:04;;;;;;;330.13;81.72;;;;;;;1.96;100.00;98852.38;346038;28;2060;-72
2023/01/27 00:47:14;;;;;;;328.23;81.40;;;;;;;1.95;100.00;98850.66;347510;28;2152;-72
2023/01/27 00:47:25;;;;;;;326.13;79.57;;;;;;;1.95;100.00;98850.66;347065;28;2072;-72
2023/01/27 00:47:35;;;;;;;327.77;77.97;;;;;;;1.94;100.00;98849.81;345493;28;1246;-72
2023/01/27 00:47:48;;;;;;;329.35;78.13;;;;;;;1.94;100.00;98854.13;344553;28;4524;-72
2023/01/27 00:47:59;;;;;;;329.52;78.30;;;;;;;1.94;100.00;98854.13;348343;28;3066;-72
2023/01/27 00:48:09;;;;;;;328.13;79.37;;;;;;;1.93;100.00;98849.84;350765;28;1195;-72
2023/01/27 00:48:19;;;;;;;326.77;79.43;;;;;;;1.94;100.00;98854.97;349831;28;3200;-72
2023/01/27 00:48:30;;;;;;;326.43;79.00;;;;;;;1.93;100.00;98847.28;348946;28;875;-72
2023/01/27 00:48:40;;;;;;;323.50;77.47;;;;;;;1.95;100.00;98858.41;344636;28;3971;-72
2023/01/27 00:48:51;;;;;;;325.05;78.95;;;;;;;1.94;100.00;98851.56;344043;28;2722;-72
2023/01/27 00:49:01;;;;;;;324.33;77.77;;;;;;;1.95;100.00;98845.50;345137;28;3687;-72
2023/01/27 00:49:12;;;;;;;326.15;79.10;;;;;;;1.94;100.00;98851.56;341080;28;3035;-73
2023/01/27 00:49:22;;;;;;;327.00;78.50;;;;;;;1.95;100.00;98851.53;343485;28;3540;-72
2023/01/27 00:49:33;;;;;;;330.88;80.13;;;;;;;1.93;100.00;98849.84;343442;28;4576;-73
2023/01/27 00:49:43;;;;;;;329.70;79.97;;;;;;;1.96;100.00;98847.22;343080;28;3710;-73
2023/01/27 00:49:54;;;;;;;328.67;81.30;;;;;;;1.97;100.00;98851.50;339039;28;3554;-73
2023/01/27 00:50:05;;;;;;;326.50;81.17;;;;;;;1.96;100.00;98853.22;342964;28;825;-72
2023/01/27 00:50:15;;;;;;;327.80;81.05;;;;;;;1.97;100.00;98854.06;345999;28;1201;-72
2023/01/27 00:50:26;;;;;;;328.08;79.93;;;;;;;1.96;100.00;98852.38;349800;28;1591;-72
2023/01/27 00:50:37;;;;;;;327.73;79.27;;;;;;;1.96;100.00;98853.22;344809;28;1246;-72
2023/01/27 00:50:47;;;;;;;327.77;78.45;;;;;;;1.96;100.00;98847.22;343449;28;1508;-72
2023/01/27 00:50:58;;;;;;;327.00;77.67;;;;;;;1.94;100.00;98854.13;343243;28;832;-72
2023/01/27 00:51:09;;;;;;;326.70;77.85;;;;;;;1.94;100.00;98848.97;340560;29;794;-72
2023/01/27 00:51:19;;;;;;;326.17;78.88;;;;;;;1.95;100.00;98848.94;343049;28;1328;-73
2023/01/27 00:51:30;;;;;;;327.67;80.63;;;;;;;1.95;100.00;98842.94;344581;28;800;-74
2023/01/27 00:51:41;;;;;;;328.60;81.60;;;;;;;1.97;100.00;98846.34;343334;28;955;-73
2023/01/27 00:51:51;;;;;;;326.40;80.97;;;;;;;1.97;100.00;98846.34;342683;28;1314;-73
2023/01/27 00:52:01;;;;;;;325.73;80.20;;;;;;;1.96;100.00;98847.22;343255;28;1330;-73
2023/01/27 00:52:12;;;;;;;325.83;79.32;;;;;;;1.95;100.00;98850.66;342984;28;1383;-73
2023/01/27 00:52:22;;;;;;;327.73;80.03;;;;;;;1.96;100.00;98847.22;342321;28;1360;-73
2023/01/27 00:52:33;;;;;;;328.80;78.77;;;;;;;1.96;100.00;98848.06;341820;28;1539;-73
2023/01/27 00:52:43;;;;;;;328.20;78.68;;;;;;;1.96;100.00;98847.22;340544;29;873;-73
2023/01/27 00:52:56;;;;;;;327.53;77.33;;;;;;;1.95;100.00;98848.09;339466;29;1965;-73
2023/01/27 00:53:07;;;;;;;329.58;78.22;;;;;;;1.96;100.00;98854.94;341095;28;892;-73
2023/01/27 00:53:17;;;;;;;329.00;78.43;;;;;;;1.96;100.00;98852.38;340579;29;888;-73
2023/01/27 00:53:27;;;;;;;326.33;79.40;;;;;;;1.97;100.00;98848.91;339347;29;782;-73
2023/01/27 00:53:38;;;;;;;324.17;79.27;;;;;;;1.96;100.00;98848.06;336479;29;1072;-73
2023/01/27 00:53:49;;;;;;;325.13;79.45;;;;;;;1.97;100.00;98854.06;336043;29;1434;-73
2023/01/27 00:54:01;;;;;;;326.83;80.13;;;;;;;1.98;100.00;98850.63;332903;29;831;-74
2023/01/27 00:54:13;;;;;;;328.50;79.88;;;;;;;1.96;100.00;98848.06;338412;29;1706;-75
2023/01/27 00:54:23;;;;;;;328.95;79.82;;;;;;;1.96;100.00;98849.78;334963;29;1938;-72
2023/01/27 00:54:33;;;;;;;326.50;78.38;;;;;;;1.98;100.00;98848.03;333527;29;2147;-72
2023/01/27 00:54:44;;;;;;;326.80;79.60;;;;;;;1.99;100.00;98852.31;334069;29;881;-73
2023/01/27 00:54:54;;;;;;;328.40;80.05;;;;;;;1.99;100.00;98847.16;336088;29;2221;-73
2023/01/27 00:55:06;;;;;;;327.57;79.30;;;;;;;1.98;100.00;98848.88;335464;29;1625;-73
2023/01/27 00:55:17;;;;;;;327.80;79.45;;;;;;;1.98;100.00;98848.03;333939;29;919;-73
2023/01/27 00:55:27;;;;;;;327.60;79.57;;;;;;;1.97;100.00;98851.50;336424;29;1244;-73
2023/01/27 00:55:37;;;;;;;326.08;78.10;;;;;;;1.99;100.00;98849.75;335556;29;1094;-73
2023/01/27 00:55:48;;;;;;;326.17;79.23;;;;;;;1.98;100.00;98848.88;333103;29;1890;-72
2023/01/27 00:55:58;;;;;;;328.88;82.35;;;;;;;1.97;100.00;98839.44;331455;29;1328;-72
2023/01/27 00:56:09;;;;;;;332.70;83.43;;;;;;;1.96;100.00;98848.06;331790;29;2108;-72
2023/01/27 00:56:19;;;;;;;333.67;83.60;;;;;;;1.98;100.00;98850.63;332066;29;2633;-72
2023/01/27 00:56:30;;;;;;;330.23;82.10;;;;;;;1.96;100.00;98848.06;331575;29;843;-72
2023/01/27 00:56:40;;;;;;;328.65;82.68;;;;;;;1.96;100.00;98849.78;332718;29;2410;-72
2023/01/27 00:56:50;;;;;;;326.23;80.77;;;;;;;1.97;100.00;98851.50;330667;29;2657;-72
2023/01/27 00:57:01;;;;;;;326.83;80.07;;;;;;;1.95;100.00;98842.94;329038;30;918;-72
2023/01/27 00:57:11;;;;;;;325.97;78.53;;;;;;;1.98;100.00;98848.03;332110;29;2674;-72
2023/01/27 00:57:21;;;;;;;328.30;80.07;;;;;;;1.98;100.00;98848.88;330078;29;1814;-72
2023/01/27 00:57:32;;;;;;;331.03;80.33;;;;;;;1.97;100.00;98849.78;329201;30;804;-72
2023/01/27 00:57:42;;;;;;;332.60;82.45;;;;;;;1.96;100.00;98842.06;325412;30;1733;-72
2023/01/27 00:57:53;;;;;;;332.47;81.00;;;;;;;1.96;100.00;98847.22;321934;30;3665;-72
2023/01/27 00:58:03;;;;;;;330.50;80.53;;;;;;;1.96;100.00;98842.06;319548;30;5066;-72
2023/01/27 00:58:14;;;;;;;328.83;78.53;;;;;;;1.96;100.00;98842.06;322922;30;2311;-74
2023/01/27 00:58:25;;;;;;;327.75;79.15;;;;;;;1.97;100.00;98843.75;325964;29;2734;-73
2023/01/27 00:58:35;;;;;;;327.55;79.68;;;;;;;1.97;100.00;98841.19;326003;30;3242;-73
2023/01/27 00:58:46;;;;;;;327.83;80.50;;;;;;;1.96;100.00;98836.91;320859;30;919;-73
2023/01/27 00:58:56;;;;;;;326.80;79.50;;;;;;;1.99;100.00;98839.41;318052;30;3935;-73
2023/01/27 00:59:06;;;;;;;327.50;80.00;;;;;;;1.99;100.00;98836.84;318555;30;3821;-73
2023/01/27 00:59:17;;;;;;;329.67;80.78;;;;;;;1.98;100.00;98838.56;316353;31;1452;-73
2023/01/27 00:59:27;;;;;;;331.08;82.90;;;;;;;1.99;100.00;98842.00;317269;31;1961;-73
2023/01/27 00:59:38;;;;;;;330.73;82.10;;;;;;;1.98;100.00;98837.72;317392;30;2881;-73
2023/01/27 00:59:48;;;;;;;326.20;80.33;;;;;;;1.98;100.00;98840.28;315465;31;3612;-73
2023/01/27 00:59:58;;;;;;;324.92;79.53;;;;;;;2.00;100.00;98838.53;310867;31;4558;-72
2023/01/27 01:00:10;;;;;;;325.43;80.00;;;;;;;1.99;100.00;98826.53;314734;31;3109;-72
2023/01/27 01:00:21;;;;;;;330.98;82.35;;;;;;;1.99;100.00;98831.69;312732;31;4038;-73
2023/01/27 01:00:31;;;;;;;334.27;83.10;;;;;;;1.99;100.00;98826.53;310235;31;3182;-73
2023/01/27 01:00:42;;;;;;;335.47;82.10;;;;;;;1.98;100.00;98833.41;313835;31;3848;-73
2023/01/27 01:00:53;;;;;;;329.92;79.00;;;;;;;1.96;100.00;98822.25;309686;31;4509;-72
2023/01/27 01:01:06;;;;;;;328.98;78.38;;;;;;;1.98;100.00;98829.97;306099;31;4621;-72
2023/01/27 01:01:16;;;;;;;329.25;81.03;;;;;;;1.97;100.00;98828.28;302132;32;987;-72
2023/01/27 01:01:27;;;;;;;329.97;82.10;;;;;;;1.97;100.00;98823.97;306032;31;4566;-72
2023/01/27 01:01:38;;;;;;;330.35;82.75;;;;;;;1.98;100.00;98824.81;307731;31;4464;-72
2023/01/27 01:01:48;;;;;;;327.45;79.82;;;;;;;2.00;100.00;98825.63;307687;31;3793;-72
2023/01/27 01:01:59;;;;;;;326.85;78.70;;;;;;;2.00;100.00;98828.22;303661;32;3034;-72
2023/01/27 01:02:09;;;;;;;329.77;80.43;;;;;;;1.99;100.00;98822.22;303457;32;3751;-73
2023/01/27 01:02:19;;;;;;;335.88;84.25;;;;;;;1.99;100.00;98826.53;301426;32;4267;-73
2023/01/27 01:02:30;;;;;;;334.13;83.87;;;;;;;1.99;100.00;98826.53;304416;32;872;-73
2023/01/27 01:02:40;;;;;;;331.17;82.50;;;;;;;2.00;100.00;98828.22;304067;32;5152;-73
2023/01/27 01:02:51;;;;;;;326.87;80.17;;;;;;;1.99;100.00;98826.53;301017;32;5654;-72
2023/01/27 01:03:01;;;;;;;331.08;81.40;;;;;;;1.98;100.00;98824.81;300462;32;3253;-72
2023/01/27 01:03:11;;;;;;;332.17;81.90;;;;;;;1.97;100.00;98823.13;294081;33;7414;-72
2023/01/27 01:03:22;;;;;;;336.17;83.75;;;;;;;1.96;100.00;98824.00;293666;33;6368;-73
2023/01/27 01:03:33;;;;;;;331.70;82.73;;;;;;;1.97;100.00;98823.97;293995;33;3196;-73
2023/01/27 01:03:44;;;;;;;327.55;81.55;;;;;;;1.96;100.00;98819.69;295243;33;1668;-73
2023/01/27 01:03:54;;;;;;;326.50;82.07;;;;;;;1.96;100.00;98816.25;291826;33;7091;-72